createdAt,value
2022-10-24T00:00:15.677Z,100501.95
2022-10-24T00:03:02.601Z,100511.15
2022-10-24T00:05:29.317Z,100512.39
2022-10-24T00:07:56.010Z,100516.35
2022-10-24T00:10:22.987Z,100519.09
2022-10-24T00:12:49.626Z,100515.29
2022-10-24T00:15:16.388Z,100508.51
2022-10-24T00:17:43.103Z,100511.52
2022-10-24T00:20:13.601Z,100511.20
2022-10-24T00:22:40.393Z,100511.31
2022-10-24T00:25:07.394Z,100509.02
2022-10-24T00:27:35.645Z,100509.61
2022-10-24T00:30:04.833Z,100503.34
2022-10-24T00:32:32.109Z,100494.96
2022-10-24T00:34:58.714Z,100492.52
2022-10-24T00:37:25.356Z,100487.90
2022-10-24T00:39:52.026Z,100482.72
2022-10-24T00:42:18.638Z,100481.80
2022-10-24T00:44:46.139Z,100483.36
2022-10-24T00:47:17.232Z,100484.70
2022-10-24T00:50:12.235Z,100481.40
2022-10-24T00:52:44.566Z,100479.58
2022-10-24T00:55:12.956Z,100487.27
2022-10-24T00:57:43.562Z,100486.58
2022-10-24T01:00:18.254Z,100488.02
2022-10-24T01:02:45.604Z,100482.92
2022-10-24T01:05:14.032Z,100482.83
2022-10-24T01:08:14.393Z,100484.58
2022-10-24T01:10:48.175Z,100485.90
2022-10-24T01:13:45.908Z,100484.90
2022-10-24T01:16:20.970Z,100485.64
2022-10-24T01:18:57.423Z,100479.73
2022-10-24T01:21:34.784Z,100479.55
2022-10-24T01:24:07.046Z,100482.27
2022-10-24T01:26:51.874Z,100489.27
2022-10-24T01:29:35.361Z,100489.92
2022-10-24T01:32:32.465Z,100491.68
2022-10-24T01:35:23.866Z,100492.88
2022-10-24T01:38:12.380Z,100493.42
2022-10-24T01:40:55.667Z,100496.46
2022-10-24T01:43:34.107Z,100495.02
2022-10-24T01:46:05.077Z,100490.73
2022-10-24T01:48:37.908Z,100489.27
2022-10-24T01:51:07.043Z,100488.97
2022-10-24T01:53:36.295Z,100491.39
2022-10-24T01:56:03.061Z,100493.59
2022-10-24T01:58:29.745Z,100497.60
2022-10-24T02:01:01.362Z,100500.86
2022-10-24T02:03:36.115Z,100502.93
2022-10-24T02:06:26.043Z,100503.81
2022-10-24T02:09:00.416Z,100503.29
2022-10-24T02:11:27.211Z,100503.38
2022-10-24T02:14:02.153Z,100503.41
2022-10-24T02:16:29.387Z,100506.97
2022-10-24T02:18:58.077Z,100507.16
2022-10-24T02:21:41.872Z,100507.30
2022-10-24T02:24:32.809Z,100504.94
2022-10-24T02:27:05.381Z,100501.03
2022-10-24T02:29:38.061Z,100498.21
2022-10-24T02:32:09.332Z,100496.55
2022-10-24T02:34:39.252Z,100498.52
2022-10-24T02:37:08.194Z,100501.60
2022-10-24T02:39:37.673Z,100501.94
2022-10-24T02:42:06.505Z,100499.91
2022-10-24T02:44:34.609Z,100498.50
2022-10-24T02:47:04.704Z,100495.32
2022-10-24T02:49:31.452Z,100491.95
2022-10-24T02:51:59.724Z,100493.65
2022-10-24T02:54:26.356Z,100489.94
2022-10-24T02:56:59.279Z,100490.29
2022-10-24T02:59:25.911Z,100490.60
2022-10-24T03:01:52.650Z,100487.09
2022-10-24T03:04:19.513Z,100486.24
2022-10-24T03:06:46.633Z,100482.44
2022-10-24T03:09:13.387Z,100481.19
2022-10-24T03:11:40.738Z,100483.48
2022-10-24T03:14:07.419Z,100481.17
2022-10-24T03:16:34.071Z,100479.95
2022-10-24T03:19:00.721Z,100475.76
2022-10-24T03:21:27.426Z,100472.37
2022-10-24T03:23:54.183Z,100469.73
2022-10-24T03:26:20.881Z,100467.98
2022-10-24T03:28:47.531Z,100472.49
2022-10-24T03:31:14.172Z,100470.37
2022-10-24T03:33:40.835Z,100461.46
2022-10-24T03:36:08.008Z,100466.11
2022-10-24T03:38:34.670Z,100465.20
2022-10-24T03:41:01.322Z,100459.77
2022-10-24T03:43:27.943Z,100455.38
2022-10-24T03:45:54.776Z,100449.77
2022-10-24T03:48:29.605Z,100442.98
2022-10-24T03:50:56.255Z,100438.17
2022-10-24T03:53:22.969Z,100437.88
2022-10-24T03:55:49.590Z,100437.20
2022-10-24T03:58:16.773Z,100438.12
2022-10-24T04:00:43.537Z,100439.71
2022-10-24T04:03:10.255Z,100438.77
2022-10-24T04:05:37.191Z,100436.23
2022-10-24T04:08:04.065Z,100434.30
2022-10-24T04:10:30.833Z,100431.16
2022-10-24T04:12:57.498Z,100431.49
2022-10-24T04:15:24.428Z,100427.67
2022-10-24T04:17:51.108Z,100426.04
2022-10-24T04:20:20.045Z,100424.85
2022-10-24T04:22:47.202Z,100423.30
2022-10-24T04:25:14.955Z,100417.17
2022-10-24T04:27:41.824Z,100416.85
2022-10-24T04:30:16.344Z,100415.08
2022-10-24T04:32:44.288Z,100417.16
2022-10-24T04:35:11.782Z,100418.25
2022-10-24T04:37:38.432Z,100419.17
2022-10-24T04:40:06.321Z,100418.76
2022-10-24T04:42:33.036Z,100420.28
2022-10-24T04:44:59.895Z,100424.60
2022-10-24T04:47:26.621Z,100430.29
2022-10-24T04:49:53.321Z,100431.64
2022-10-24T04:52:19.936Z,100432.90
2022-10-24T04:54:46.575Z,100435.98
2022-10-24T04:57:13.248Z,100441.15
2022-10-24T04:59:39.968Z,100442.66
2022-10-24T05:02:06.671Z,100443.68
2022-10-24T05:04:33.624Z,100444.33
2022-10-24T05:07:01.005Z,100441.46
2022-10-24T05:09:27.589Z,100441.42
2022-10-24T05:11:57.358Z,100446.08
2022-10-24T05:14:24.523Z,100452.19
2022-10-24T05:16:51.192Z,100455.89
2022-10-24T05:19:19.114Z,100458.18
2022-10-24T05:21:46.116Z,100463.64
2022-10-24T05:24:13.019Z,100470.43
2022-10-24T05:26:39.661Z,100472.19
2022-10-24T05:31:37.874Z,100473.80
2022-10-24T05:34:04.636Z,100487.17
2022-10-24T05:36:31.651Z,100492.70
2022-10-24T05:38:58.297Z,100492.23
2022-10-24T05:41:25.293Z,100495.30
2022-10-24T05:43:52.031Z,100493.15
2022-10-24T05:46:18.745Z,100493.13
2022-10-24T05:48:45.366Z,100494.15
2022-10-24T05:51:12.027Z,100500.81
2022-10-24T05:53:38.761Z,100498.05
2022-10-24T05:56:05.975Z,100508.19
2022-10-24T05:58:33.045Z,100512.70
2022-10-24T06:01:00.432Z,100521.08
2022-10-24T06:03:27.128Z,100527.00
2022-10-24T06:05:53.742Z,100530.59
2022-10-24T06:08:20.353Z,100529.23
2022-10-24T06:10:51.421Z,100526.88
2022-10-24T06:13:18.067Z,100525.86
2022-10-24T06:15:45.306Z,100529.23
2022-10-24T06:18:11.940Z,100530.69
2022-10-24T06:20:38.880Z,100530.06
2022-10-24T06:23:05.631Z,100525.33
2022-10-24T06:25:32.314Z,100522.14
2022-10-24T06:27:59.348Z,100519.14
2022-10-24T06:30:26.239Z,100516.79
2022-10-24T06:32:52.953Z,100514.34
2022-10-24T06:35:19.645Z,100518.68
2022-10-24T06:37:48.138Z,100517.96
2022-10-24T06:40:17.101Z,100511.57
2022-10-24T06:42:44.769Z,100504.39
2022-10-24T06:45:11.697Z,100500.89
2022-10-24T06:47:38.409Z,100492.88
2022-10-24T06:50:06.064Z,100490.67
2022-10-24T06:52:32.696Z,100484.73
2022-10-24T06:54:59.526Z,100484.42
2022-10-24T06:57:26.372Z,100483.20
2022-10-24T06:59:53.222Z,100486.27
2022-10-24T07:02:20.071Z,100495.20
2022-10-24T07:04:46.825Z,100499.30
2022-10-24T07:07:18.484Z,100502.27
2022-10-24T07:09:50.815Z,100493.85
2022-10-24T07:12:17.609Z,100501.73
2022-10-24T07:14:44.221Z,100503.06
2022-10-24T07:17:10.860Z,100500.44
2022-10-24T07:19:37.615Z,100494.98
2022-10-24T07:22:04.867Z,100494.55
2022-10-24T07:24:31.488Z,100494.95
2022-10-24T07:26:58.080Z,100486.08
2022-10-24T07:29:24.932Z,100483.73
2022-10-24T07:31:51.624Z,100475.34
2022-10-24T07:34:18.414Z,100472.00
2022-10-24T07:36:45.126Z,100465.05
2022-10-24T07:39:13.139Z,100461.83
2022-10-24T07:41:41.312Z,100464.14
2022-10-24T07:44:09.743Z,100463.83
2022-10-24T07:46:36.655Z,100461.70
2022-10-24T07:49:03.326Z,100456.22
2022-10-24T07:51:31.218Z,100450.19
2022-10-24T07:53:58.399Z,100448.13
2022-10-24T07:56:25.115Z,100455.33
2022-10-24T07:58:51.843Z,100453.42
2022-10-24T08:01:21.626Z,100458.36
2022-10-24T08:03:49.108Z,100460.55
2022-10-24T08:06:20.326Z,100461.67
2022-10-24T08:08:47.457Z,100459.27
2022-10-24T08:11:17.508Z,100468.27
2022-10-24T08:13:44.963Z,100469.81
2022-10-24T08:16:13.993Z,100474.54
2022-10-24T08:18:40.740Z,100474.14
2022-10-24T08:21:12.837Z,100467.07
2022-10-24T08:23:42.428Z,100466.80
2022-10-24T08:26:12.893Z,100462.88
2022-10-24T08:28:40.299Z,100460.04
2022-10-24T08:31:10.781Z,100460.54
2022-10-24T08:33:38.107Z,100459.00
2022-10-24T08:36:13.112Z,100460.27
2022-10-24T08:38:39.793Z,100458.84
2022-10-24T08:41:09.494Z,100457.78
2022-10-24T08:43:36.359Z,100460.16
2022-10-24T08:46:12.186Z,100460.58
2022-10-24T08:48:52.094Z,100457.89
2022-10-24T08:51:21.419Z,100454.23
2022-10-24T08:53:51.978Z,100451.69
2022-10-24T08:56:18.769Z,100449.84
2022-10-24T08:58:46.618Z,100449.51
2022-10-24T09:01:27.692Z,100452.36
2022-10-24T09:03:56.899Z,100452.30
2022-10-24T09:06:29.912Z,100452.67
2022-10-24T09:09:10.225Z,100450.45
2022-10-24T09:11:51.830Z,100449.13
2022-10-24T09:14:38.235Z,100441.30
2022-10-24T09:17:23.083Z,100437.95
2022-10-24T09:19:53.141Z,100439.78
2022-10-24T09:22:22.206Z,100433.02
2022-10-24T09:24:57.454Z,100427.23
2022-10-24T09:27:29.115Z,100424.59
2022-10-24T09:29:58.037Z,100425.83
2022-10-24T09:32:30.029Z,100430.70
2022-10-24T09:35:03.084Z,100429.31
2022-10-24T09:37:36.513Z,100427.41
2022-10-24T09:40:08.439Z,100423.17
2022-10-24T09:42:38.116Z,100424.41
2022-10-24T09:45:25.716Z,100420.24
2022-10-24T09:48:02.624Z,100415.54
2022-10-24T09:50:33.957Z,100409.71
2022-10-24T09:53:02.898Z,100408.63
2022-10-24T09:55:31.491Z,100403.21
2022-10-24T09:58:03.521Z,100404.70
2022-10-24T10:00:34.405Z,100402.15
2022-10-24T10:03:23.539Z,100401.58
2022-10-24T10:05:56.380Z,100401.83
2022-10-24T10:08:29.518Z,100405.73
2022-10-24T10:11:05.986Z,100399.66
2022-10-24T10:13:53.279Z,100400.34
2022-10-24T10:16:23.798Z,100396.61
2022-10-24T10:19:00.584Z,100390.44
2022-10-24T10:21:27.405Z,100387.08
2022-10-24T10:23:56.227Z,100381.30
2022-10-24T10:26:41.305Z,100382.14
2022-10-24T10:29:17.676Z,100381.88
2022-10-24T10:32:02.240Z,100382.95
2022-10-24T10:34:42.587Z,100376.92
2022-10-24T10:37:27.920Z,100374.51
2022-10-24T10:40:22.622Z,100371.45
2022-10-24T10:43:15.588Z,100363.20
2022-10-24T10:45:47.910Z,100359.02
2022-10-24T10:48:32.327Z,100357.04
2022-10-24T10:51:11.372Z,100360.51
2022-10-24T10:54:06.211Z,100358.12
2022-10-24T10:56:53.604Z,100361.02
2022-10-24T10:59:29.295Z,100347.54
2022-10-24T11:02:27.446Z,100348.57
2022-10-24T11:05:21.972Z,100348.08
2022-10-24T11:08:10.101Z,100346.34
2022-10-24T11:11:03.214Z,100348.91
2022-10-24T11:13:40.045Z,100348.91
2022-10-24T11:16:13.041Z,100344.97
2022-10-24T11:18:44.313Z,100337.65
2022-10-24T11:21:14.175Z,100330.64
2022-10-24T11:23:48.885Z,100323.80
2022-10-24T11:26:35.503Z,100320.49
2022-10-24T11:29:22.031Z,100317.44
2022-10-24T11:32:17.324Z,100316.48
2022-10-24T11:34:56.329Z,100315.66
2022-10-24T11:37:38.264Z,100305.95
2022-10-24T11:40:21.168Z,100300.48
2022-10-24T11:43:15.592Z,100295.99
2022-10-24T11:45:58.872Z,100292.41
2022-10-24T11:48:31.303Z,100286.88
2022-10-24T11:51:27.425Z,100284.99
2022-10-24T11:53:59.494Z,100284.25
2022-10-24T11:56:42.454Z,100276.28
2022-10-24T11:59:18.293Z,100269.86
2022-10-24T12:01:50.819Z,100263.75
2022-10-24T12:04:36.405Z,100266.45
2022-10-24T12:07:24.419Z,100256.60
2022-10-24T12:10:19.323Z,100248.06
2022-10-24T12:13:17.647Z,100248.55
2022-10-24T12:16:13.844Z,100246.82
2022-10-24T12:18:45.656Z,100244.48
2022-10-24T12:21:19.301Z,100238.62
2022-10-24T12:23:57.290Z,100232.40
2022-10-24T12:26:29.194Z,100228.49
2022-10-24T12:29:07.091Z,100221.74
2022-10-24T12:31:37.333Z,100222.15
2022-10-24T12:34:18.879Z,100221.80
2022-10-24T12:37:08.976Z,100224.83
2022-10-24T12:39:39.148Z,100234.58
2022-10-24T12:42:32.763Z,100232.20
2022-10-24T12:44:59.495Z,100230.39
2022-10-24T12:47:38.180Z,100233.91
2022-10-24T12:50:20.511Z,100234.00
2022-10-24T12:52:48.253Z,100235.05
2022-10-24T12:55:39.336Z,100230.49
2022-10-24T12:58:30.951Z,100234.60
2022-10-24T13:00:59.565Z,100225.70
2022-10-24T13:03:41.862Z,100219.67
2022-10-24T13:06:43.046Z,100218.02
2022-10-24T13:09:12.666Z,100223.52
2022-10-24T13:11:52.187Z,100225.81
2022-10-24T13:14:53.001Z,100225.16
2022-10-24T13:17:47.705Z,100224.02
2022-10-24T13:20:21.364Z,100223.63
2022-10-24T13:22:50.426Z,100222.28
2022-10-24T13:25:34.462Z,100222.79
2022-10-24T13:28:18.940Z,100224.29
2022-10-24T13:30:49.586Z,100220.46
2022-10-24T13:33:28.268Z,100220.55
2022-10-24T13:36:05.379Z,100214.52
2022-10-24T13:38:34.177Z,100217.25
2022-10-24T13:41:03.584Z,100220.19
2022-10-24T13:43:30.415Z,100219.11
2022-10-24T13:46:08.362Z,100220.34
2022-10-24T13:48:47.263Z,100212.58
2022-10-24T13:51:21.085Z,100209.69
2022-10-24T13:54:25.822Z,100213.46
2022-10-24T13:56:52.480Z,100210.84
2022-10-24T13:59:36.744Z,100214.27
2022-10-24T14:02:14.262Z,100213.15
2022-10-24T14:04:46.338Z,100211.62
2022-10-24T14:07:20.475Z,100208.59
2022-10-24T14:10:12.697Z,100205.90
2022-10-24T14:12:40.392Z,100203.47
2022-10-24T14:15:19.223Z,100206.84
2022-10-24T14:17:58.088Z,100209.73
2022-10-24T14:20:29.047Z,100214.44
2022-10-24T14:22:56.103Z,100210.52
2022-10-24T14:25:29.594Z,100205.65
2022-10-24T14:27:59.998Z,100203.55
2022-10-24T14:30:34.442Z,100204.52
2022-10-24T14:33:07.192Z,100204.29
2022-10-24T14:35:34.413Z,100209.25
2022-10-24T14:38:03.941Z,100200.67
2022-10-24T14:40:33.817Z,100192.77
2022-10-24T14:43:00.508Z,100187.92
2022-10-24T14:45:29.950Z,100184.80
2022-10-24T14:48:00.070Z,100186.14
2022-10-24T14:50:42.807Z,100187.86
2022-10-24T14:53:30.435Z,100194.72
2022-10-24T14:55:59.506Z,100194.60
2022-10-24T14:58:33.027Z,100198.21
2022-10-24T15:01:00.138Z,100197.77
2022-10-24T15:03:28.170Z,100197.18
2022-10-24T15:05:54.822Z,100201.27
2022-10-24T15:08:27.597Z,100195.81
2022-10-24T15:11:21.250Z,100193.47
2022-10-24T15:14:05.554Z,100197.14
2022-10-24T15:16:39.095Z,100198.44
2022-10-24T15:19:13.437Z,100201.04
2022-10-24T15:21:42.586Z,100194.35
2022-10-24T15:24:21.994Z,100193.33
2022-10-24T15:26:49.037Z,100182.95
2022-10-24T15:29:21.561Z,100189.24
2022-10-24T15:31:50.810Z,100189.17
2022-10-24T15:34:20.470Z,100184.25
2022-10-24T15:36:49.541Z,100183.08
2022-10-24T15:39:24.263Z,100183.73
2022-10-24T15:41:52.365Z,100188.02
2022-10-24T15:44:26.064Z,100190.73
2022-10-24T15:46:53.746Z,100189.12
2022-10-24T15:49:20.457Z,100193.86
2022-10-24T15:51:50.432Z,100192.14
2022-10-24T15:54:21.159Z,100192.95
2022-10-24T15:56:48.822Z,100195.91
2022-10-24T15:59:17.131Z,100196.20
2022-10-24T16:01:49.111Z,100196.90
2022-10-24T16:04:16.766Z,100192.61
2022-10-24T16:06:43.508Z,100197.70
2022-10-24T16:09:14.907Z,100201.00
2022-10-24T16:11:41.817Z,100203.80
2022-10-24T16:14:13.885Z,100199.89
2022-10-24T16:16:40.594Z,100201.97
2022-10-24T16:19:09.004Z,100207.34
2022-10-24T16:21:36.135Z,100202.20
2022-10-24T16:24:03.388Z,100201.86
2022-10-24T16:26:30.019Z,100202.78
2022-10-24T16:28:56.683Z,100207.40
2022-10-24T16:31:23.581Z,100207.95
2022-10-24T16:33:51.370Z,100208.08
2022-10-24T16:36:20.816Z,100206.29
2022-10-24T16:38:51.198Z,100207.19
2022-10-24T16:41:21.449Z,100202.30
2022-10-24T16:43:49.929Z,100203.89
2022-10-24T16:46:19.927Z,100205.89
2022-10-24T16:48:47.353Z,100204.70
2022-10-24T16:51:22.863Z,100206.84
2022-10-24T16:53:49.726Z,100209.36
2022-10-24T16:56:16.846Z,100211.49
2022-10-24T16:58:44.177Z,100214.11
2022-10-24T17:01:13.245Z,100215.70
2022-10-24T17:03:40.923Z,100214.65
2022-10-24T17:06:08.643Z,100213.67
2022-10-24T17:08:35.785Z,100207.48
2022-10-24T17:11:03.247Z,100209.90
2022-10-24T17:13:29.951Z,100205.10
2022-10-24T17:15:57.154Z,100199.38
2022-10-24T17:18:26.122Z,100199.11
2022-10-24T17:20:59.633Z,100194.06
2022-10-24T17:23:28.644Z,100180.58
2022-10-24T17:25:59.402Z,100171.40
2022-10-24T17:28:32.330Z,100167.66
2022-10-24T17:31:00.367Z,100164.70
2022-10-24T17:33:27.261Z,100163.26
2022-10-24T17:35:56.211Z,100162.14
2022-10-24T17:38:32.350Z,100164.87
2022-10-24T17:41:09.199Z,100156.23
2022-10-24T17:43:36.099Z,100155.31
2022-10-24T17:46:02.975Z,100152.52
2022-10-24T17:48:30.008Z,100147.91
2022-10-24T17:50:58.136Z,100148.61
2022-10-24T17:53:24.829Z,100142.87
2022-10-24T17:55:51.615Z,100149.83
2022-10-24T17:58:18.791Z,100146.75
2022-10-24T18:00:45.906Z,100151.70
2022-10-24T18:03:13.765Z,100151.08
2022-10-24T18:05:41.086Z,100152.54
2022-10-24T18:08:09.335Z,100151.52
2022-10-24T18:10:37.556Z,100152.29
2022-10-24T18:13:04.938Z,100146.44
2022-10-24T18:15:31.784Z,100143.31
2022-10-24T18:17:58.350Z,100136.91
2022-10-24T18:20:24.941Z,100130.63
2022-10-24T18:22:51.664Z,100127.63
2022-10-24T18:25:21.992Z,100127.56
2022-10-24T18:27:50.670Z,100127.39
2022-10-24T18:30:21.696Z,100127.97
2022-10-24T18:32:48.589Z,100131.41
2022-10-24T18:35:15.423Z,100134.54
2022-10-24T18:37:42.092Z,100130.23
2022-10-24T18:40:09.581Z,100126.24
2022-10-24T18:43:00.638Z,100126.48
2022-10-24T18:45:27.939Z,100128.84
2022-10-24T18:47:55.112Z,100128.03
2022-10-24T18:50:24.431Z,100125.23
2022-10-24T18:53:06.645Z,100130.45
2022-10-24T18:55:34.923Z,100128.54
2022-10-24T18:58:02.298Z,100127.69
2022-10-24T19:00:31.380Z,100129.27
2022-10-24T19:03:23.125Z,100129.51
2022-10-24T19:05:55.757Z,100131.04
2022-10-24T19:08:24.687Z,100128.55
2022-10-24T19:10:55.280Z,100124.94
2022-10-24T19:13:23.918Z,100128.27
2022-10-24T19:15:59.621Z,100131.13
2022-10-24T19:18:29.340Z,100130.55
2022-10-24T19:20:56.034Z,100132.36
2022-10-24T19:23:24.113Z,100132.95
2022-10-24T19:25:51.289Z,100135.55
2022-10-24T19:28:19.611Z,100133.70
2022-10-24T19:30:47.181Z,100129.04
2022-10-24T19:33:14.553Z,100132.98
2022-10-24T19:35:46.321Z,100136.02
2022-10-24T19:38:17.217Z,100133.48
2022-10-24T19:40:49.165Z,100131.89
2022-10-24T19:43:15.764Z,100127.33
2022-10-24T19:45:50.154Z,100124.84
2022-10-24T19:48:17.906Z,100124.88
2022-10-24T19:50:44.721Z,100124.72
2022-10-24T19:53:13.695Z,100126.34
2022-10-24T19:55:40.894Z,100130.40
2022-10-24T19:58:12.186Z,100132.81
2022-10-24T20:00:40.762Z,100137.22
2022-10-24T20:03:07.538Z,100138.48
2022-10-24T20:05:35.559Z,100137.73
2022-10-24T20:08:02.166Z,100137.53
2022-10-24T20:10:28.934Z,100136.94
2022-10-24T20:12:55.946Z,100136.23
2022-10-24T20:15:22.618Z,100138.77
2022-10-24T20:17:49.469Z,100141.06
2022-10-24T20:20:18.071Z,100139.80
2022-10-24T20:22:45.850Z,100134.91
2022-10-24T20:25:12.897Z,100135.44
2022-10-24T20:27:40.078Z,100137.30
2022-10-24T20:30:07.658Z,100137.03
2022-10-24T20:32:34.298Z,100137.30
2022-10-24T20:35:01.153Z,100135.55
2022-10-24T20:37:27.885Z,100133.02
2022-10-24T20:39:54.467Z,100138.77
2022-10-24T20:42:21.752Z,100139.18
2022-10-24T20:44:48.383Z,100136.40
2022-10-24T20:47:15.056Z,100133.93
2022-10-24T20:49:41.675Z,100128.86
2022-10-24T20:52:08.372Z,100130.44
2022-10-24T20:54:34.979Z,100127.11
2022-10-24T20:57:01.644Z,100127.72
2022-10-24T20:59:28.205Z,100127.27
2022-10-24T21:01:54.895Z,100129.97
2022-10-24T21:04:21.719Z,100122.38
2022-10-24T21:06:48.430Z,100116.28
2022-10-24T21:09:15.024Z,100116.52
2022-10-24T21:11:41.765Z,100110.77
2022-10-24T21:14:11.818Z,100105.42
2022-10-24T21:16:38.709Z,100101.56
2022-10-24T21:19:05.358Z,100099.04
2022-10-24T21:21:32.156Z,100088.50
2022-10-24T21:24:04.372Z,100095.74
2022-10-24T21:26:33.765Z,100093.48
2022-10-24T21:29:08.952Z,100090.18
2022-10-24T21:31:41.680Z,100090.20
2022-10-24T21:34:08.277Z,100088.80
2022-10-24T21:36:34.895Z,100088.17
2022-10-24T21:39:01.713Z,100095.11
2022-10-24T21:41:28.344Z,100091.48
2022-10-24T21:43:54.957Z,100092.20
2022-10-24T21:46:26.395Z,100095.95
2022-10-24T21:48:54.827Z,100096.54
2022-10-24T21:51:25.452Z,100097.32
2022-10-24T21:54:07.156Z,100093.37
2022-10-24T21:56:36.409Z,100093.38
2022-10-24T21:59:06.366Z,100091.27
2022-10-24T22:01:35.799Z,100090.79
2022-10-24T22:04:04.378Z,100088.77
2022-10-24T22:06:32.475Z,100090.02
2022-10-24T22:08:59.198Z,100092.26
2022-10-24T22:11:28.919Z,100094.70
2022-10-24T22:13:56.021Z,100090.48
2022-10-24T22:16:25.140Z,100096.13
2022-10-24T22:18:52.373Z,100097.49
2022-10-24T22:21:25.074Z,100099.81
2022-10-24T22:23:52.187Z,100105.10
2022-10-24T22:26:18.879Z,100107.03
2022-10-24T22:28:45.591Z,100109.04
2022-10-24T22:31:13.731Z,100102.42
2022-10-24T22:33:41.773Z,100107.27
2022-10-24T22:36:29.849Z,100104.79
2022-10-24T22:38:56.641Z,100099.86
2022-10-24T22:41:24.724Z,100098.23
2022-10-24T22:43:51.728Z,100097.51
2022-10-24T22:46:58.017Z,100090.96
2022-10-24T22:49:30.459Z,100091.05
2022-10-24T22:51:57.311Z,100097.18
2022-10-24T22:54:24.968Z,100089.70
2022-10-24T22:56:52.055Z,100089.31
2022-10-24T22:59:19.057Z,100088.76
2022-10-24T23:02:10.461Z,100088.39
2022-10-24T23:05:00.295Z,100081.11
2022-10-24T23:07:45.301Z,100080.94
2022-10-24T23:10:18.895Z,100081.47
2022-10-24T23:12:47.128Z,100085.44
2022-10-24T23:15:15.969Z,100087.21
2022-10-24T23:17:44.165Z,100091.33
2022-10-24T23:20:22.724Z,100090.39
2022-10-24T23:22:58.109Z,100084.50
2022-10-24T23:25:36.071Z,100081.41
2022-10-24T23:28:46.661Z,100071.36
2022-10-24T23:31:13.544Z,100066.91
2022-10-24T23:33:40.416Z,100066.20
2022-10-24T23:36:19.222Z,100060.66
2022-10-24T23:38:46.855Z,100060.75
2022-10-24T23:41:13.730Z,100058.89
2022-10-24T23:43:40.638Z,100056.20
2022-10-24T23:46:31.777Z,100059.66
2022-10-24T23:49:33.647Z,100060.33
2022-10-24T23:52:34.809Z,100058.14
2022-10-24T23:55:02.045Z,100052.05
2022-10-24T23:57:28.838Z,100048.67
2022-10-24T23:59:55.425Z,100044.43
